sensor_id;sensor_type;location;lat;lon;timestamp;P1;durP1;ratioP1;P2;durP2;ratioP2
48026;SDS011;50714;49.208;5.364;2022-07-23T00:02:05;5.07;;;4.28;;
48026;SDS011;50714;49.208;5.364;2022-07-23T00:12:06;4.68;;;4.15;;
48026;SDS011;50714;49.208;5.364;2022-07-23T00:22:07;4.55;;;4.03;;
48026;SDS011;50714;49.208;5.364;2022-07-23T00:32:07;4.72;;;4.20;;
48026;SDS011;50714;49.208;5.364;2022-07-23T00:42:07;4.95;;;4.10;;
48026;SDS011;50714;49.208;5.364;2022-07-23T00:52:08;5.30;;;4.72;;
48026;SDS011;50714;49.208;5.364;2022-07-23T01:02:08;4.97;;;4.43;;
48026;SDS011;50714;49.208;5.364;2022-07-23T01:12:08;4.82;;;3.95;;
48026;SDS011;50714;49.208;5.364;2022-07-23T01:22:09;4.82;;;4.28;;
48026;SDS011;50714;49.208;5.364;2022-07-23T01:32:10;4.47;;;4.07;;
48026;SDS011;50714;49.208;5.364;2022-07-23T01:42:10;4.50;;;4.10;;
48026;SDS011;50714;49.208;5.364;2022-07-23T01:52:11;5.40;;;4.88;;
48026;SDS011;50714;49.208;5.364;2022-07-23T02:02:11;4.95;;;4.45;;
48026;SDS011;50714;49.208;5.364;2022-07-23T02:12:12;5.30;;;4.78;;
48026;SDS011;50714;49.208;5.364;2022-07-23T02:22:12;5.50;;;5.00;;
48026;SDS011;50714;49.208;5.364;2022-07-23T02:32:12;5.35;;;4.85;;
48026;SDS011;50714;49.208;5.364;2022-07-23T02:42:13;5.72;;;4.50;;
48026;SDS011;50714;49.208;5.364;2022-07-23T02:52:14;5.97;;;4.57;;
48026;SDS011;50714;49.208;5.364;2022-07-23T03:02:14;5.22;;;4.72;;
48026;SDS011;50714;49.208;5.364;2022-07-23T03:12:14;4.78;;;4.30;;
48026;SDS011;50714;49.208;5.364;2022-07-23T03:22:15;4.70;;;4.20;;
48026;SDS011;50714;49.208;5.364;2022-07-23T03:32:15;4.20;;;3.80;;
48026;SDS011;50714;49.208;5.364;2022-07-23T03:42:16;4.63;;;4.20;;
48026;SDS011;50714;49.208;5.364;2022-07-23T03:52:16;4.90;;;4.40;;
48026;SDS011;50714;49.208;5.364;2022-07-23T04:02:17;6.13;;;5.53;;
48026;SDS011;50714;49.208;5.364;2022-07-23T04:12:17;5.70;;;5.13;;
48026;SDS011;50714;49.208;5.364;2022-07-23T04:22:17;7.05;;;6.03;;
48026;SDS011;50714;49.208;5.364;2022-07-23T04:32:18;6.13;;;5.53;;
48026;SDS011;50714;49.208;5.364;2022-07-23T04:42:18;5.72;;;5.13;;
48026;SDS011;50714;49.208;5.364;2022-07-23T04:52:18;5.95;;;5.38;;
48026;SDS011;50714;49.208;5.364;2022-07-23T05:02:19;5.03;;;4.53;;
48026;SDS011;50714;49.208;5.364;2022-07-23T05:12:19;4.70;;;4.28;;
48026;SDS011;50714;49.208;5.364;2022-07-23T05:22:19;5.50;;;4.72;;
48026;SDS011;50714;49.208;5.364;2022-07-23T05:32:20;5.15;;;4.65;;
48026;SDS011;50714;49.208;5.364;2022-07-23T05:42:20;5.57;;;5.05;;
48026;SDS011;50714;49.208;5.364;2022-07-23T05:52:21;4.93;;;4.43;;
48026;SDS011;50714;49.208;5.364;2022-07-23T06:02:21;5.43;;;4.93;;
48026;SDS011;50714;49.208;5.364;2022-07-23T06:12:22;5.45;;;4.95;;
48026;SDS011;50714;49.208;5.364;2022-07-23T06:22:22;5.03;;;4.53;;
48026;SDS011;50714;49.208;5.364;2022-07-23T06:32:23;5.78;;;5.22;;
48026;SDS011;50714;49.208;5.364;2022-07-23T06:42:23;5.63;;;5.03;;
48026;SDS011;50714;49.208;5.364;2022-07-23T06:52:24;4.70;;;3.97;;
48026;SDS011;50714;49.208;5.364;2022-07-23T07:02:25;4.05;;;3.33;;
48026;SDS011;50714;49.208;5.364;2022-07-23T07:12:26;4.65;;;3.80;;
48026;SDS011;50714;49.208;5.364;2022-07-23T07:22:26;4.10;;;3.70;;
48026;SDS011;50714;49.208;5.364;2022-07-23T07:32:26;3.92;;;3.33;;
48026;SDS011;50714;49.208;5.364;2022-07-23T07:42:27;4.60;;;3.72;;
48026;SDS011;50714;49.208;5.364;2022-07-23T07:52:27;6.07;;;4.80;;
48026;SDS011;50714;49.208;5.364;2022-07-23T08:02:28;5.50;;;4.90;;
48026;SDS011;50714;49.208;5.364;2022-07-23T08:12:36;4.72;;;4.22;;
48026;SDS011;50714;49.208;5.364;2022-07-23T08:22:57;4.97;;;3.85;;
48026;SDS011;50714;49.208;5.364;2022-07-23T08:43:08;5.18;;;4.68;;
48026;SDS011;50714;49.208;5.364;2022-07-23T08:53:10;3.72;;;3.40;;
48026;SDS011;50714;49.208;5.364;2022-07-23T09:03:18;7.05;;;5.13;;
48026;SDS011;50714;49.208;5.364;2022-07-23T09:13:23;4.32;;;3.75;;
48026;SDS011;50714;49.208;5.364;2022-07-23T09:23:38;4.05;;;3.33;;
48026;SDS011;50714;49.208;5.364;2022-07-23T09:33:39;3.72;;;3.15;;
48026;SDS011;50714;49.208;5.364;2022-07-23T09:43:40;3.50;;;3.20;;
48026;SDS011;50714;49.208;5.364;2022-07-23T09:53:40;3.25;;;2.67;;
48026;SDS011;50714;49.208;5.364;2022-07-23T10:03:41;3.38;;;2.90;;
48026;SDS011;50714;49.208;5.364;2022-07-23T10:13:43;2.80;;;2.50;;
48026;SDS011;50714;49.208;5.364;2022-07-23T10:24:10;4.93;;;3.95;;
48026;SDS011;50714;49.208;5.364;2022-07-23T10:34:40;3.15;;;2.85;;
48026;SDS011;50714;49.208;5.364;2022-07-23T10:44:48;4.60;;;3.25;;
48026;SDS011;50714;49.208;5.364;2022-07-23T10:54:49;4.17;;;3.67;;
48026;SDS011;50714;49.208;5.364;2022-07-23T11:04:59;3.72;;;2.97;;
48026;SDS011;50714;49.208;5.364;2022-07-23T11:15:05;3.78;;;3.33;;
48026;SDS011;50714;49.208;5.364;2022-07-23T11:25:06;3.58;;;2.92;;
48026;SDS011;50714;49.208;5.364;2022-07-23T11:45:29;2.70;;;2.20;;
48026;SDS011;50714;49.208;5.364;2022-07-23T11:55:33;2.90;;;2.42;;
48026;SDS011;50714;49.208;5.364;2022-07-23T12:05:35;2.35;;;2.15;;
48026;SDS011;50714;49.208;5.364;2022-07-23T12:15:46;2.42;;;2.22;;
48026;SDS011;50714;49.208;5.364;2022-07-23T12:25:52;3.08;;;2.00;;
48026;SDS011;50714;49.208;5.364;2022-07-23T12:35:54;2.25;;;1.80;;
48026;SDS011;50714;49.208;5.364;2022-07-23T12:56:17;2.60;;;2.35;;
48026;SDS011;50714;49.208;5.364;2022-07-23T13:06:19;3.33;;;2.80;;
48026;SDS011;50714;49.208;5.364;2022-07-23T13:16:19;2.50;;;2.17;;
48026;SDS011;50714;49.208;5.364;2022-07-23T13:26:20;3.25;;;2.50;;
48026;SDS011;50714;49.208;5.364;2022-07-23T13:36:20;2.95;;;2.72;;
48026;SDS011;50714;49.208;5.364;2022-07-23T13:46:21;3.17;;;2.60;;
48026;SDS011;50714;49.208;5.364;2022-07-23T13:56:21;3.10;;;2.58;;
48026;SDS011;50714;49.208;5.364;2022-07-23T14:06:21;3.03;;;2.10;;
48026;SDS011;50714;49.208;5.364;2022-07-23T14:16:22;3.38;;;2.67;;
48026;SDS011;50714;49.208;5.364;2022-07-23T14:26:23;3.03;;;2.50;;
48026;SDS011;50714;49.208;5.364;2022-07-23T14:36:23;3.47;;;2.20;;
48026;SDS011;50714;49.208;5.364;2022-07-23T14:46:24;2.57;;;2.37;;
48026;SDS011;50714;49.208;5.364;2022-07-23T14:56:24;2.80;;;2.38;;
48026;SDS011;50714;49.208;5.364;2022-07-23T15:06:24;2.38;;;2.05;;
48026;SDS011;50714;49.208;5.364;2022-07-23T15:16:25;2.65;;;2.20;;
48026;SDS011;50714;49.208;5.364;2022-07-23T15:26:26;2.78;;;2.42;;
48026;SDS011;50714;49.208;5.364;2022-07-23T15:36:27;2.90;;;2.30;;
48026;SDS011;50714;49.208;5.364;2022-07-23T15:46:27;2.88;;;2.40;;
48026;SDS011;50714;49.208;5.364;2022-07-23T15:56:28;2.53;;;2.13;;
48026;SDS011;50714;49.208;5.364;2022-07-23T16:06:28;4.05;;;2.58;;
48026;SDS011;50714;49.208;5.364;2022-07-23T16:16:33;2.27;;;2.07;;
48026;SDS011;50714;49.208;5.364;2022-07-23T16:26:33;4.20;;;2.13;;
48026;SDS011;50714;49.208;5.364;2022-07-23T16:36:34;2.70;;;2.38;;
48026;SDS011;50714;49.208;5.364;2022-07-23T16:46:34;2.42;;;2.22;;
48026;SDS011;50714;49.208;5.364;2022-07-23T16:56:35;2.42;;;2.22;;
48026;SDS011;50714;49.208;5.364;2022-07-23T17:06:35;2.58;;;2.22;;
48026;SDS011;50714;49.208;5.364;2022-07-23T17:16:36;2.42;;;2.10;;
48026;SDS011;50714;49.208;5.364;2022-07-23T17:26:37;3.58;;;2.40;;
48026;SDS011;50714;49.208;5.364;2022-07-23T17:36:38;3.08;;;2.05;;
48026;SDS011;50714;49.208;5.364;2022-07-23T17:46:39;2.73;;;2.30;;
48026;SDS011;50714;49.208;5.364;2022-07-23T17:56:40;3.08;;;2.22;;
48026;SDS011;50714;49.208;5.364;2022-07-23T18:06:41;2.80;;;2.03;;
48026;SDS011;50714;49.208;5.364;2022-07-23T18:16:42;2.72;;;2.33;;
48026;SDS011;50714;49.208;5.364;2022-07-23T18:26:44;2.40;;;2.20;;
48026;SDS011;50714;49.208;5.364;2022-07-23T18:36:44;2.97;;;2.20;;
48026;SDS011;50714;49.208;5.364;2022-07-23T18:46:44;2.72;;;2.33;;
48026;SDS011;50714;49.208;5.364;2022-07-23T18:56:45;2.60;;;2.40;;
48026;SDS011;50714;49.208;5.364;2022-07-23T19:06:45;2.67;;;2.20;;
48026;SDS011;50714;49.208;5.364;2022-07-23T19:16:46;3.50;;;2.72;;
48026;SDS011;50714;49.208;5.364;2022-07-23T19:26:47;3.35;;;2.47;;
48026;SDS011;50714;49.208;5.364;2022-07-23T19:36:48;3.83;;;3.00;;
48026;SDS011;50714;49.208;5.364;2022-07-23T19:46:48;5.78;;;3.00;;
48026;SDS011;50714;49.208;5.364;2022-07-23T19:56:49;2.88;;;2.65;;
48026;SDS011;50714;49.208;5.364;2022-07-23T20:06:49;2.90;;;2.50;;
48026;SDS011;50714;49.208;5.364;2022-07-23T20:16:49;3.17;;;2.88;;
48026;SDS011;50714;49.208;5.364;2022-07-23T20:26:50;3.53;;;3.17;;
48026;SDS011;50714;49.208;5.364;2022-07-23T20:36:52;3.60;;;3.10;;
48026;SDS011;50714;49.208;5.364;2022-07-23T20:46:52;3.65;;;3.30;;
48026;SDS011;50714;49.208;5.364;2022-07-23T20:56:55;3.15;;;2.85;;
48026;SDS011;50714;49.208;5.364;2022-07-23T21:06:55;3.55;;;3.22;;
48026;SDS011;50714;49.208;5.364;2022-07-23T21:16:56;4.07;;;3.42;;
48026;SDS011;50714;49.208;5.364;2022-07-23T21:26:56;3.90;;;3.38;;
48026;SDS011;50714;49.208;5.364;2022-07-23T21:36:57;3.25;;;2.92;;
48026;SDS011;50714;49.208;5.364;2022-07-23T21:46:57;3.63;;;3.25;;
48026;SDS011;50714;49.208;5.364;2022-07-23T21:56:57;3.30;;;2.88;;
48026;SDS011;50714;49.208;5.364;2022-07-23T22:06:58;3.70;;;3.05;;
48026;SDS011;50714;49.208;5.364;2022-07-23T22:16:58;3.45;;;3.13;;
48026;SDS011;50714;49.208;5.364;2022-07-23T22:26:59;3.55;;;2.92;;
48026;SDS011;50714;49.208;5.364;2022-07-23T22:36:59;3.45;;;3.15;;
48026;SDS011;50714;49.208;5.364;2022-07-23T22:46:59;3.75;;;3.20;;
48026;SDS011;50714;49.208;5.364;2022-07-23T22:57:00;3.33;;;2.97;;
48026;SDS011;50714;49.208;5.364;2022-07-23T23:07:00;4.05;;;3.03;;
48026;SDS011;50714;49.208;5.364;2022-07-23T23:17:01;3.78;;;3.35;;
48026;SDS011;50714;49.208;5.364;2022-07-23T23:27:01;4.05;;;3.10;;
48026;SDS011;50714;49.208;5.364;2022-07-23T23:37:02;3.20;;;2.80;;
48026;SDS011;50714;49.208;5.364;2022-07-23T23:47:02;3.15;;;2.85;;
48026;SDS011;50714;49.208;5.364;2022-07-23T23:57:02;3.88;;;3.17;;
